sensor_id;sensor_type;location;lat;lon;timestamp;temperature;humidity
8402;DHT22;4238;48.404;9.498;2023-09-08T04:01:48;11.80;99.90
8402;DHT22;4238;48.404;9.498;2023-09-08T04:04:15;11.80;99.90
8402;DHT22;4238;48.404;9.498;2023-09-08T04:06:42;11.80;99.90
8402;DHT22;4238;48.404;9.498;2023-09-08T04:09:09;11.90;99.90
8402;DHT22;4238;48.404;9.498;2023-09-08T04:11:35;11.80;99.90
8402;DHT22;4238;48.404;9.498;2023-09-08T04:14:02;11.70;99.90
8402;DHT22;4238;48.404;9.498;2023-09-08T04:16:29;11.80;99.90
8402;DHT22;4238;48.404;9.498;2023-09-08T04:18:57;11.80;99.90
8402;DHT22;4238;48.404;9.498;2023-09-08T04:21:24;11.80;99.90
8402;DHT22;4238;48.404;9.498;2023-09-08T04:23:51;11.80;99.90
8402;DHT22;4238;48.404;9.498;2023-09-08T04:26:17;11.90;99.90
8402;DHT22;4238;48.404;9.498;2023-09-08T04:28:44;11.90;99.90
8402;DHT22;4238;48.404;9.498;2023-09-08T04:31:11;11.90;99.90
8402;DHT22;4238;48.404;9.498;2023-09-08T04:33:38;11.90;99.90
8402;DHT22;4238;48.404;9.498;2023-09-08T04:36:06;11.90;99.90
8402;DHT22;4238;48.404;9.498;2023-09-08T04:38:33;11.80;99.90
8402;DHT22;4238;48.404;9.498;2023-09-08T04:41:00;11.80;99.90
8402;DHT22;4238;48.404;9.498;2023-09-08T04:43:27;11.80;99.90
8402;DHT22;4238;48.404;9.498;2023-09-08T04:45:53;11.80;99.90
8402;DHT22;4238;48.404;9.498;2023-09-08T04:48:20;11.80;99.90
8402;DHT22;4238;48.404;9.498;2023-09-08T04:50:47;11.70;99.90
8402;DHT22;4238;48.404;9.498;2023-09-08T04:53:15;11.70;99.90
8402;DHT22;4238;48.404;9.498;2023-09-08T04:55:44;11.80;99.90
8402;DHT22;4238;48.404;9.498;2023-09-08T04:58:10;11.80;99.90
8402;DHT22;4238;48.404;9.498;2023-09-08T05:00:38;11.80;99.90
8402;DHT22;4238;48.404;9.498;2023-09-08T05:03:05;11.80;99.90
8402;DHT22;4238;48.404;9.498;2023-09-08T05:05:32;11.90;99.90
8402;DHT22;4238;48.404;9.498;2023-09-08T05:07:59;11.90;99.90
8402;DHT22;4238;48.404;9.498;2023-09-08T05:10:27;11.90;99.90
8402;DHT22;4238;48.404;9.498;2023-09-08T05:12:54;11.90;99.90
8402;DHT22;4238;48.404;9.498;2023-09-08T05:15:20;11.90;99.90
8402;DHT22;4238;48.404;9.498;2023-09-08T05:17:47;11.80;99.90
8402;DHT22;4238;48.404;9.498;2023-09-08T05:20:14;11.90;99.90
8402;DHT22;4238;48.404;9.498;2023-09-08T05:22:41;11.90;99.90
8402;DHT22;4238;48.404;9.498;2023-09-08T05:25:09;12.00;99.90
8402;DHT22;4238;48.404;9.498;2023-09-08T05:27:37;12.00;99.90
8402;DHT22;4238;48.404;9.498;2023-09-08T05:30:05;12.10;99.90
8402;DHT22;4238;48.404;9.498;2023-09-08T05:32:32;12.40;99.90
8402;DHT22;4238;48.404;9.498;2023-09-08T05:34:59;12.50;99.90
8402;DHT22;4238;48.404;9.498;2023-09-08T05:37:26;12.70;99.90
8402;DHT22;4238;48.404;9.498;2023-09-08T05:39:53;12.90;99.90
8402;DHT22;4238;48.404;9.498;2023-09-08T05:42:19;13.00;99.90
8402;DHT22;4238;48.404;9.498;2023-09-08T05:44:48;13.00;99.90
8402;DHT22;4238;48.404;9.498;2023-09-08T05:47:14;13.20;99.90
8402;DHT22;4238;48.404;9.498;2023-09-08T05:49:41;13.30;99.90
8402;DHT22;4238;48.404;9.498;2023-09-08T05:52:08;13.40;99.90
8402;DHT22;4238;48.404;9.498;2023-09-08T05:54:35;13.50;99.90
8402;DHT22;4238;48.404;9.498;2023-09-08T05:57:02;13.60;99.90
8402;DHT22;4238;48.404;9.498;2023-09-08T05:59:29;13.80;99.90
8402;DHT22;4238;48.404;9.498;2023-09-08T06:01:57;13.90;99.90
8402;DHT22;4238;48.404;9.498;2023-09-08T06:04:24;13.90;99.90
8402;DHT22;4238;48.404;9.498;2023-09-08T06:06:51;13.90;99.90
8402;DHT22;4238;48.404;9.498;2023-09-08T06:09:18;13.90;99.90
8402;DHT22;4238;48.404;9.498;2023-09-08T06:11:44;13.90;99.90
8402;DHT22;4238;48.404;9.498;2023-09-08T06:14:11;13.90;99.90
8402;DHT22;4238;48.404;9.498;2023-09-08T06:16:38;13.90;99.90
8402;DHT22;4238;48.404;9.498;2023-09-08T06:19:06;13.90;99.90
8402;DHT22;4238;48.404;9.498;2023-09-08T06:21:33;14.00;99.90
8402;DHT22;4238;48.404;9.498;2023-09-08T06:24:00;14.20;99.90
8402;DHT22;4238;48.404;9.498;2023-09-08T06:26:27;14.30;99.90
8402;DHT22;4238;48.404;9.498;2023-09-08T06:28:54;14.50;99.90
8402;DHT22;4238;48.404;9.498;2023-09-08T06:31:20;14.70;99.90
8402;DHT22;4238;48.404;9.498;2023-09-08T06:33:47;14.90;99.90
8402;DHT22;4238;48.404;9.498;2023-09-08T06:36:18;15.10;99.90
8402;DHT22;4238;48.404;9.498;2023-09-08T06:38:45;15.40;99.90
8402;DHT22;4238;48.404;9.498;2023-09-08T06:41:12;15.70;99.90
8402;DHT22;4238;48.404;9.498;2023-09-08T06:43:39;15.90;99.30
8402;DHT22;4238;48.404;9.498;2023-09-08T06:46:06;16.00;95.80
8402;DHT22;4238;48.404;9.498;2023-09-08T06:48:33;16.30;97.80
8402;DHT22;4238;48.404;9.498;2023-09-08T06:51:00;16.50;92.80
8402;DHT22;4238;48.404;9.498;2023-09-08T06:53:28;16.70;83.90
8402;DHT22;4238;48.404;9.498;2023-09-08T06:55:56;17.00;75.10
8402;DHT22;4238;48.404;9.498;2023-09-08T06:58:23;17.30;65.70
8402;DHT22;4238;48.404;9.498;2023-09-08T07:00:50;17.50;53.90
8402;DHT22;4238;48.404;9.498;2023-09-08T07:03:19;17.70;57.70
8402;DHT22;4238;48.404;9.498;2023-09-08T07:05:47;17.90;49.20
8402;DHT22;4238;48.404;9.498;2023-09-08T07:08:13;18.20;39.30
8402;DHT22;4238;48.404;9.498;2023-09-08T07:10:42;18.40;31.20
8402;DHT22;4238;48.404;9.498;2023-09-08T07:13:09;18.60;26.80
8402;DHT22;4238;48.404;9.498;2023-09-08T07:15:36;18.90;6.20
8402;DHT22;4238;48.404;9.498;2023-09-08T07:18:03;19.10;6.00
8402;DHT22;4238;48.404;9.498;2023-09-08T07:20:30;19.30;2.30
8402;DHT22;4238;48.404;9.498;2023-09-08T07:22:57;19.50;1.00
8402;DHT22;4238;48.404;9.498;2023-09-08T07:25:24;19.80;1.00
8402;DHT22;4238;48.404;9.498;2023-09-08T07:27:52;19.90;1.00
8402;DHT22;4238;48.404;9.498;2023-09-08T07:30:19;20.20;1.00
8402;DHT22;4238;48.404;9.498;2023-09-08T07:32:46;20.30;1.00
8402;DHT22;4238;48.404;9.498;2023-09-08T07:35:13;20.60;1.00
8402;DHT22;4238;48.404;9.498;2023-09-08T07:37:42;20.80;1.00
8402;DHT22;4238;48.404;9.498;2023-09-08T07:40:10;21.00;1.00
8402;DHT22;4238;48.404;9.498;2023-09-08T07:42:37;21.30;1.00
8402;DHT22;4238;48.404;9.498;2023-09-08T07:45:06;21.50;1.00
8402;DHT22;4238;48.404;9.498;2023-09-08T07:47:35;21.80;1.00
8402;DHT22;4238;48.404;9.498;2023-09-08T07:50:17;22.00;1.00
8402;DHT22;4238;48.404;9.498;2023-09-08T07:52:45;22.30;1.00
8402;DHT22;4238;48.404;9.498;2023-09-08T07:55:12;22.60;1.00
8402;DHT22;4238;48.404;9.498;2023-09-08T07:57:39;22.90;1.00
8402;DHT22;4238;48.404;9.498;2023-09-08T08:00:08;23.00;1.00
8402;DHT22;4238;48.404;9.498;2023-09-08T08:02:37;23.30;99.90
8402;DHT22;4238;48.404;9.498;2023-09-08T08:05:04;23.60;99.90
8402;DHT22;4238;48.404;9.498;2023-09-08T08:07:32;24.00;1.00
8402;DHT22;4238;48.404;9.498;2023-09-08T08:09:59;24.20;99.90
8402;DHT22;4238;48.404;9.498;2023-09-08T08:12:26;24.20;99.90
8402;DHT22;4238;48.404;9.498;2023-09-08T08:14:53;24.30;99.90
8402;DHT22;4238;48.404;9.498;2023-09-08T08:17:21;24.50;1.00
8402;DHT22;4238;48.404;9.498;2023-09-08T08:19:48;24.60;1.00
8402;DHT22;4238;48.404;9.498;2023-09-08T08:22:15;24.80;99.90
8402;DHT22;4238;48.404;9.498;2023-09-08T08:24:42;25.00;1.00
8402;DHT22;4238;48.404;9.498;2023-09-08T08:27:09;25.20;1.00
8402;DHT22;4238;48.404;9.498;2023-09-08T08:29:35;25.20;99.90
8402;DHT22;4238;48.404;9.498;2023-09-08T08:32:03;25.30;99.90
8402;DHT22;4238;48.404;9.498;2023-09-08T08:34:31;25.60;81.80
8402;DHT22;4238;48.404;9.498;2023-09-08T08:36:58;25.60;99.90
8402;DHT22;4238;48.404;9.498;2023-09-08T08:39:24;25.80;98.20
8402;DHT22;4238;48.404;9.498;2023-09-08T08:41:51;26.00;1.00
8402;DHT22;4238;48.404;9.498;2023-09-08T08:44:19;25.60;1.00
8402;DHT22;4238;48.404;9.498;2023-09-08T08:46:46;26.00;1.00
8402;DHT22;4238;48.404;9.498;2023-09-08T08:49:15;26.00;1.00
8402;DHT22;4238;48.404;9.498;2023-09-08T08:51:44;26.20;1.00
8402;DHT22;4238;48.404;9.498;2023-09-08T08:54:12;26.30;1.00
8402;DHT22;4238;48.404;9.498;2023-09-08T08:56:39;26.60;1.00
8402;DHT22;4238;48.404;9.498;2023-09-08T08:59:07;26.80;99.90
8402;DHT22;4238;48.404;9.498;2023-09-08T09:01:35;27.00;99.90
8402;DHT22;4238;48.404;9.498;2023-09-08T09:04:05;27.10;99.90
8402;DHT22;4238;48.404;9.498;2023-09-08T09:06:32;27.20;1.00
8402;DHT22;4238;48.404;9.498;2023-09-08T09:09:01;27.40;1.00
8402;DHT22;4238;48.404;9.498;2023-09-08T09:11:29;26.90;1.00
8402;DHT22;4238;48.404;9.498;2023-09-08T09:13:57;27.00;1.00
8402;DHT22;4238;48.404;9.498;2023-09-08T09:16:24;27.30;1.00
8402;DHT22;4238;48.404;9.498;2023-09-08T09:18:55;27.50;1.00
8402;DHT22;4238;48.404;9.498;2023-09-08T09:21:22;27.80;99.90
8402;DHT22;4238;48.404;9.498;2023-09-08T09:23:49;28.10;99.90
8402;DHT22;4238;48.404;9.498;2023-09-08T09:26:25;28.00;99.90
8402;DHT22;4238;48.404;9.498;2023-09-08T09:28:52;28.00;99.90
8402;DHT22;4238;48.404;9.498;2023-09-08T09:31:23;28.40;55.70
8402;DHT22;4238;48.404;9.498;2023-09-08T09:34:01;28.40;93.30
8402;DHT22;4238;48.404;9.498;2023-09-08T09:36:30;28.40;1.00
8402;DHT22;4238;48.404;9.498;2023-09-08T09:38:58;28.30;1.00
8402;DHT22;4238;48.404;9.498;2023-09-08T09:41:28;27.70;19.50
8402;DHT22;4238;48.404;9.498;2023-09-08T09:43:56;28.00;1.00
8402;DHT22;4238;48.404;9.498;2023-09-08T09:46:23;28.40;1.00
8402;DHT22;4238;48.404;9.498;2023-09-08T09:48:51;28.50;99.90
8402;DHT22;4238;48.404;9.498;2023-09-08T09:51:19;28.80;1.00
8402;DHT22;4238;48.404;9.498;2023-09-08T09:53:46;29.00;48.50
8402;DHT22;4238;48.404;9.498;2023-09-08T09:56:15;29.10;1.00
8402;DHT22;4238;48.404;9.498;2023-09-08T09:58:44;29.10;1.00
8402;DHT22;4238;48.404;9.498;2023-09-08T10:01:11;29.00;24.90
8402;DHT22;4238;48.404;9.498;2023-09-08T10:03:39;29.10;1.00
8402;DHT22;4238;48.404;9.498;2023-09-08T10:06:06;29.40;1.00
8402;DHT22;4238;48.404;9.498;2023-09-08T10:08:34;29.60;1.00
8402;DHT22;4238;48.404;9.498;2023-09-08T10:11:06;29.90;1.00
8402;DHT22;4238;48.404;9.498;2023-09-08T10:13:39;29.90;1.00
8402;DHT22;4238;48.404;9.498;2023-09-08T10:16:08;29.80;1.00
8402;DHT22;4238;48.404;9.498;2023-09-08T10:18:39;29.90;1.00
8402;DHT22;4238;48.404;9.498;2023-09-08T10:21:10;30.10;99.90
8402;DHT22;4238;48.404;9.498;2023-09-08T10:23:40;29.70;99.90
8402;DHT22;4238;48.404;9.498;2023-09-08T10:26:10;29.90;99.90
8402;DHT22;4238;48.404;9.498;2023-09-08T10:28:37;29.90;99.90
8402;DHT22;4238;48.404;9.498;2023-09-08T10:31:04;30.10;99.90
8402;DHT22;4238;48.404;9.498;2023-09-08T10:33:34;30.00;99.90
8402;DHT22;4238;48.404;9.498;2023-09-08T10:36:03;30.10;99.90
8402;DHT22;4238;48.404;9.498;2023-09-08T10:38:33;30.00;99.90
8402;DHT22;4238;48.404;9.498;2023-09-08T10:41:26;29.90;99.90
8402;DHT22;4238;48.404;9.498;2023-09-08T10:43:55;30.00;99.90
8402;DHT22;4238;48.404;9.498;2023-09-08T10:46:22;30.40;99.90
8402;DHT22;4238;48.404;9.498;2023-09-08T10:48:52;30.50;99.90
8402;DHT22;4238;48.404;9.498;2023-09-08T10:51:20;30.80;99.90
8402;DHT22;4238;48.404;9.498;2023-09-08T10:53:48;30.50;99.90
8402;DHT22;4238;48.404;9.498;2023-09-08T10:56:16;30.50;99.90
8402;DHT22;4238;48.404;9.498;2023-09-08T10:58:48;30.30;99.90
8402;DHT22;4238;48.404;9.498;2023-09-08T11:01:17;30.00;99.90
8402;DHT22;4238;48.404;9.498;2023-09-08T11:03:45;30.00;99.90
8402;DHT22;4238;48.404;9.498;2023-09-08T11:06:17;30.20;99.40
8402;DHT22;4238;48.404;9.498;2023-09-08T11:08:46;29.40;99.90
8402;DHT22;4238;48.404;9.498;2023-09-08T11:11:14;29.50;99.90
8402;DHT22;4238;48.404;9.498;2023-09-08T11:13:41;29.70;99.90
8402;DHT22;4238;48.404;9.498;2023-09-08T11:16:11;30.00;99.90
8402;DHT22;4238;48.404;9.498;2023-09-08T11:18:38;30.40;99.90
8402;DHT22;4238;48.404;9.498;2023-09-08T11:21:08;30.70;97.00
8402;DHT22;4238;48.404;9.498;2023-09-08T11:23:36;30.60;95.90
8402;DHT22;4238;48.404;9.498;2023-09-08T11:26:03;30.10;44.60
8402;DHT22;4238;48.404;9.498;2023-09-08T11:28:32;30.70;99.90
8402;DHT22;4238;48.404;9.498;2023-09-08T11:30:58;30.80;54.60
8402;DHT22;4238;48.404;9.498;2023-09-08T11:33:25;30.70;99.90
8402;DHT22;4238;48.404;9.498;2023-09-08T11:35:53;31.10;96.80
8402;DHT22;4238;48.404;9.498;2023-09-08T11:38:24;31.10;2.90
8402;DHT22;4238;48.404;9.498;2023-09-08T11:40:54;31.30;1.00
8402;DHT22;4238;48.404;9.498;2023-09-08T11:43:21;31.50;1.00
8402;DHT22;4238;48.404;9.498;2023-09-08T11:45:48;31.70;1.00
8402;DHT22;4238;48.404;9.498;2023-09-08T11:48:15;31.50;1.00
8402;DHT22;4238;48.404;9.498;2023-09-08T11:50:43;31.50;1.00
8402;DHT22;4238;48.404;9.498;2023-09-08T11:53:10;31.50;1.00
8402;DHT22;4238;48.404;9.498;2023-09-08T11:55:37;31.50;1.00
8402;DHT22;4238;48.404;9.498;2023-09-08T11:58:06;31.10;1.00
8402;DHT22;4238;48.404;9.498;2023-09-08T12:00:33;30.90;1.00
8402;DHT22;4238;48.404;9.498;2023-09-08T12:03:10;31.10;1.00
8402;DHT22;4238;48.404;9.498;2023-09-08T12:05:37;31.10;1.00
8402;DHT22;4238;48.404;9.498;2023-09-08T12:08:05;31.20;1.00
8402;DHT22;4238;48.404;9.498;2023-09-08T12:10:38;31.00;1.00
8402;DHT22;4238;48.404;9.498;2023-09-08T12:13:06;31.00;1.00
8402;DHT22;4238;48.404;9.498;2023-09-08T12:15:35;31.40;1.00
8402;DHT22;4238;48.404;9.498;2023-09-08T12:18:03;31.70;1.00
8402;DHT22;4238;48.404;9.498;2023-09-08T12:20:30;31.70;1.00
8402;DHT22;4238;48.404;9.498;2023-09-08T12:22:59;31.60;1.00
8402;DHT22;4238;48.404;9.498;2023-09-08T12:25:27;31.70;1.00
8402;DHT22;4238;48.404;9.498;2023-09-08T12:27:57;32.00;1.00
8402;DHT22;4238;48.404;9.498;2023-09-08T12:30:26;31.40;1.00
8402;DHT22;4238;48.404;9.498;2023-09-08T12:32:57;31.60;1.00
8402;DHT22;4238;48.404;9.498;2023-09-08T12:35:24;31.60;1.00
8402;DHT22;4238;48.404;9.498;2023-09-08T12:37:57;31.60;1.00
8402;DHT22;4238;48.404;9.498;2023-09-08T12:40:25;31.10;1.00
8402;DHT22;4238;48.404;9.498;2023-09-08T12:42:52;30.70;1.00
8402;DHT22;4238;48.404;9.498;2023-09-08T12:45:20;30.90;1.00
8402;DHT22;4238;48.404;9.498;2023-09-08T12:47:49;30.90;1.00
8402;DHT22;4238;48.404;9.498;2023-09-08T12:50:16;30.80;1.00
8402;DHT22;4238;48.404;9.498;2023-09-08T12:52:43;30.90;1.00
8402;DHT22;4238;48.404;9.498;2023-09-08T12:55:10;31.00;1.00
8402;DHT22;4238;48.404;9.498;2023-09-08T12:57:37;31.10;1.00
8402;DHT22;4238;48.404;9.498;2023-09-08T13:00:05;31.10;1.00
8402;DHT22;4238;48.404;9.498;2023-09-08T13:02:33;31.20;1.00
8402;DHT22;4238;48.404;9.498;2023-09-08T13:05:01;31.20;1.00
8402;DHT22;4238;48.404;9.498;2023-09-08T13:07:28;30.80;1.00
8402;DHT22;4238;48.404;9.498;2023-09-08T13:09:55;30.90;1.00
8402;DHT22;4238;48.404;9.498;2023-09-08T13:12:22;31.10;36.30
8402;DHT22;4238;48.404;9.498;2023-09-08T13:14:49;31.30;15.40
8402;DHT22;4238;48.404;9.498;2023-09-08T13:17:15;31.40;32.30
8402;DHT22;4238;48.404;9.498;2023-09-08T13:19:43;31.60;20.40
8402;DHT22;4238;48.404;9.498;2023-09-08T13:22:12;31.60;1.90
8402;DHT22;4238;48.404;9.498;2023-09-08T13:24:39;31.70;21.70
8402;DHT22;4238;48.404;9.498;2023-09-08T13:27:06;31.60;12.70
8402;DHT22;4238;48.404;9.498;2023-09-08T13:29:33;31.50;17.40
8402;DHT22;4238;48.404;9.498;2023-09-08T13:31:59;31.50;1.00
8402;DHT22;4238;48.404;9.498;2023-09-08T13:34:26;31.80;1.00
8402;DHT22;4238;48.404;9.498;2023-09-08T13:36:53;31.50;1.00
8402;DHT22;4238;48.404;9.498;2023-09-08T13:39:21;31.40;1.00
8402;DHT22;4238;48.404;9.498;2023-09-08T13:41:50;31.10;1.00
8402;DHT22;4238;48.404;9.498;2023-09-08T13:44:17;31.00;1.00
8402;DHT22;4238;48.404;9.498;2023-09-08T13:46:45;31.20;15.20
8402;DHT22;4238;48.404;9.498;2023-09-08T13:49:12;31.30;13.40
8402;DHT22;4238;48.404;9.498;2023-09-08T13:51:39;31.20;9.50
8402;DHT22;4238;48.404;9.498;2023-09-08T13:54:06;31.30;1.00
8402;DHT22;4238;48.404;9.498;2023-09-08T13:56:34;31.00;1.00
8402;DHT22;4238;48.404;9.498;2023-09-08T13:59:01;31.10;13.50
8402;DHT22;4238;48.404;9.498;2023-09-08T14:01:28;31.10;58.10
8402;DHT22;4238;48.404;9.498;2023-09-08T14:03:55;31.10;99.90
8402;DHT22;4238;48.404;9.498;2023-09-08T14:06:22;30.90;41.20
8402;DHT22;4238;48.404;9.498;2023-09-08T14:08:50;30.60;1.00
8402;DHT22;4238;48.404;9.498;2023-09-08T14:11:17;30.60;32.50
8402;DHT22;4238;48.404;9.498;2023-09-08T14:13:45;30.50;79.70
8402;DHT22;4238;48.404;9.498;2023-09-08T14:16:12;30.40;33.50
8402;DHT22;4238;48.404;9.498;2023-09-08T14:18:39;30.50;96.70
8402;DHT22;4238;48.404;9.498;2023-09-08T14:21:06;30.50;99.90
8402;DHT22;4238;48.404;9.498;2023-09-08T14:23:33;30.70;99.90
8402;DHT22;4238;48.404;9.498;2023-09-08T14:26:02;31.00;99.90
8402;DHT22;4238;48.404;9.498;2023-09-08T14:28:29;30.70;99.90
8402;DHT22;4238;48.404;9.498;2023-09-08T14:30:59;30.90;99.90
8402;DHT22;4238;48.404;9.498;2023-09-08T14:33:25;30.80;99.90
8402;DHT22;4238;48.404;9.498;2023-09-08T14:35:52;30.90;99.90
8402;DHT22;4238;48.404;9.498;2023-09-08T14:38:20;30.70;99.90
8402;DHT22;4238;48.404;9.498;2023-09-08T14:40:55;30.90;99.90
8402;DHT22;4238;48.404;9.498;2023-09-08T14:43:22;30.90;99.90
8402;DHT22;4238;48.404;9.498;2023-09-08T14:45:49;30.80;99.90
8402;DHT22;4238;48.404;9.498;2023-09-08T14:48:18;30.70;99.90
8402;DHT22;4238;48.404;9.498;2023-09-08T14:50:45;30.50;99.90
8402;DHT22;4238;48.404;9.498;2023-09-08T14:53:12;30.10;99.90
8402;DHT22;4238;48.404;9.498;2023-09-08T14:55:39;29.90;99.90
8402;DHT22;4238;48.404;9.498;2023-09-08T14:58:06;29.80;99.90
8402;DHT22;4238;48.404;9.498;2023-09-08T15:00:33;29.60;99.90
8402;DHT22;4238;48.404;9.498;2023-09-08T15:02:59;29.30;99.90
8402;DHT22;4238;48.404;9.498;2023-09-08T15:05:31;29.10;99.90
8402;DHT22;4238;48.404;9.498;2023-09-08T15:07:58;29.20;99.90
8402;DHT22;4238;48.404;9.498;2023-09-08T15:10:25;29.00;99.90
8402;DHT22;4238;48.404;9.498;2023-09-08T15:12:51;28.70;99.90
8402;DHT22;4238;48.404;9.498;2023-09-08T15:15:18;29.00;99.90
8402;DHT22;4238;48.404;9.498;2023-09-08T15:17:49;28.80;99.90
8402;DHT22;4238;48.404;9.498;2023-09-08T15:20:16;28.90;99.90
8402;DHT22;4238;48.404;9.498;2023-09-08T15:22:44;28.70;99.90
8402;DHT22;4238;48.404;9.498;2023-09-08T15:25:11;28.80;99.90
8402;DHT22;4238;48.404;9.498;2023-09-08T15:27:38;28.70;99.90
8402;DHT22;4238;48.404;9.498;2023-09-08T15:30:06;28.70;99.90
8402;DHT22;4238;48.404;9.498;2023-09-08T15:32:33;28.60;99.90
8402;DHT22;4238;48.404;9.498;2023-09-08T15:35:00;28.50;99.90
8402;DHT22;4238;48.404;9.498;2023-09-08T15:37:28;28.50;1.00
8402;DHT22;4238;48.404;9.498;2023-09-08T15:39:56;28.60;1.00
8402;DHT22;4238;48.404;9.498;2023-09-08T15:42:23;28.50;99.90
8402;DHT22;4238;48.404;9.498;2023-09-08T15:44:50;28.40;1.00
8402;DHT22;4238;48.404;9.498;2023-09-08T15:47:17;28.20;1.00
8402;DHT22;4238;48.404;9.498;2023-09-08T15:49:44;28.20;1.00
8402;DHT22;4238;48.404;9.498;2023-09-08T15:52:11;28.20;1.00
8402;DHT22;4238;48.404;9.498;2023-09-08T15:54:38;28.30;1.00
8402;DHT22;4238;48.404;9.498;2023-09-08T15:57:06;28.30;1.00
8402;DHT22;4238;48.404;9.498;2023-09-08T15:59:34;28.20;1.00
8402;DHT22;4238;48.404;9.498;2023-09-08T16:02:01;28.20;1.00
8402;DHT22;4238;48.404;9.498;2023-09-08T16:04:28;28.10;1.00
8402;DHT22;4238;48.404;9.498;2023-09-08T16:06:56;28.00;1.00
8402;DHT22;4238;48.404;9.498;2023-09-08T16:09:23;28.00;1.00
8402;DHT22;4238;48.404;9.498;2023-09-08T16:11:50;28.10;1.00
8402;DHT22;4238;48.404;9.498;2023-09-08T16:14:18;28.10;1.00
8402;DHT22;4238;48.404;9.498;2023-09-08T16:16:45;28.10;1.00
8402;DHT22;4238;48.404;9.498;2023-09-08T16:19:11;28.10;1.00
8402;DHT22;4238;48.404;9.498;2023-09-08T16:21:38;27.90;1.00
8402;DHT22;4238;48.404;9.498;2023-09-08T16:24:07;27.90;99.90
8402;DHT22;4238;48.404;9.498;2023-09-08T16:26:34;27.90;99.90
8402;DHT22;4238;48.404;9.498;2023-09-08T16:29:01;27.80;99.90
8402;DHT22;4238;48.404;9.498;2023-09-08T16:31:29;27.70;99.90
8402;DHT22;4238;48.404;9.498;2023-09-08T16:33:56;27.60;80.40
8402;DHT22;4238;48.404;9.498;2023-09-08T16:36:22;27.60;1.00
8402;DHT22;4238;48.404;9.498;2023-09-08T16:38:49;27.50;99.90
8402;DHT22;4238;48.404;9.498;2023-09-08T16:41:16;27.50;41.20
8402;DHT22;4238;48.404;9.498;2023-09-08T16:43:43;27.30;99.90
8402;DHT22;4238;48.404;9.498;2023-09-08T16:46:09;27.20;99.90
8402;DHT22;4238;48.404;9.498;2023-09-08T16:48:40;26.90;99.90
8402;DHT22;4238;48.404;9.498;2023-09-08T16:51:07;26.80;99.90
8402;DHT22;4238;48.404;9.498;2023-09-08T16:53:34;26.70;1.00
8402;DHT22;4238;48.404;9.498;2023-09-08T16:56:01;26.60;1.00
8402;DHT22;4238;48.404;9.498;2023-09-08T16:58:34;26.40;1.00
8402;DHT22;4238;48.404;9.498;2023-09-08T17:01:01;26.40;99.90
8402;DHT22;4238;48.404;9.498;2023-09-08T17:03:28;26.20;99.90
8402;DHT22;4238;48.404;9.498;2023-09-08T17:05:56;26.10;99.90
8402;DHT22;4238;48.404;9.498;2023-09-08T17:08:25;26.00;1.00
8402;DHT22;4238;48.404;9.498;2023-09-08T17:10:52;25.90;1.00
8402;DHT22;4238;48.404;9.498;2023-09-08T17:13:19;25.80;99.90
8402;DHT22;4238;48.404;9.498;2023-09-08T17:15:46;25.60;1.00
8402;DHT22;4238;48.404;9.498;2023-09-08T17:18:12;25.60;1.00
8402;DHT22;4238;48.404;9.498;2023-09-08T17:20:41;25.40;82.40
8402;DHT22;4238;48.404;9.498;2023-09-08T17:23:09;25.20;1.00
8402;DHT22;4238;48.404;9.498;2023-09-08T17:25:36;25.10;99.90
8402;DHT22;4238;48.404;9.498;2023-09-08T17:28:03;25.10;1.00
8402;DHT22;4238;48.404;9.498;2023-09-08T17:30:30;25.10;1.00
8402;DHT22;4238;48.404;9.498;2023-09-08T17:32:56;24.80;99.90
8402;DHT22;4238;48.404;9.498;2023-09-08T17:35:23;24.70;1.00
8402;DHT22;4238;48.404;9.498;2023-09-08T17:37:51;24.50;1.00
8402;DHT22;4238;48.404;9.498;2023-09-08T17:40:19;24.50;1.00
8402;DHT22;4238;48.404;9.498;2023-09-08T17:42:46;24.10;1.00
8402;DHT22;4238;48.404;9.498;2023-09-08T17:45:13;23.70;1.00
8402;DHT22;4238;48.404;9.498;2023-09-08T17:47:40;23.40;1.00
8402;DHT22;4238;48.404;9.498;2023-09-08T17:50:07;23.30;1.00
8402;DHT22;4238;48.404;9.498;2023-09-08T17:52:34;23.10;1.00
8402;DHT22;4238;48.404;9.498;2023-09-08T17:55:01;22.90;1.00
8402;DHT22;4238;48.404;9.498;2023-09-08T17:57:30;22.70;1.00
8402;DHT22;4238;48.404;9.498;2023-09-08T17:59:57;22.50;1.00
8402;DHT22;4238;48.404;9.498;2023-09-08T18:02:24;22.40;1.00
8402;DHT22;4238;48.404;9.498;2023-09-08T18:04:51;22.20;1.00
8402;DHT22;4238;48.404;9.498;2023-09-08T18:07:18;22.10;1.00
8402;DHT22;4238;48.404;9.498;2023-09-08T18:09:45;21.90;1.00
8402;DHT22;4238;48.404;9.498;2023-09-08T18:12:11;21.70;1.00
8402;DHT22;4238;48.404;9.498;2023-09-08T18:14:40;21.60;1.00
8402;DHT22;4238;48.404;9.498;2023-09-08T18:17:06;21.50;1.00
8402;DHT22;4238;48.404;9.498;2023-09-08T18:19:34;21.40;1.30
8402;DHT22;4238;48.404;9.498;2023-09-08T18:22:01;21.30;5.80
8402;DHT22;4238;48.404;9.498;2023-09-08T18:24:28;21.30;10.00
8402;DHT22;4238;48.404;9.498;2023-09-08T18:26:55;21.20;10.70
8402;DHT22;4238;48.404;9.498;2023-09-08T18:29:22;21.10;21.90
8402;DHT22;4238;48.404;9.498;2023-09-08T18:31:50;21.00;23.50
8402;DHT22;4238;48.404;9.498;2023-09-08T18:34:17;20.90;26.70
8402;DHT22;4238;48.404;9.498;2023-09-08T18:36:44;20.80;41.40
8402;DHT22;4238;48.404;9.498;2023-09-08T18:39:10;20.80;34.60
8402;DHT22;4238;48.404;9.498;2023-09-08T18:41:37;20.70;33.50
8402;DHT22;4238;48.404;9.498;2023-09-08T18:44:04;20.60;27.10
8402;DHT22;4238;48.404;9.498;2023-09-08T18:46:31;20.80;17.60
8402;DHT22;4238;48.404;9.498;2023-09-08T18:49:00;20.80;13.60
8402;DHT22;4238;48.404;9.498;2023-09-08T18:51:27;20.90;2.70
8402;DHT22;4238;48.404;9.498;2023-09-08T18:53:53;21.00;21.30
8402;DHT22;4238;48.404;9.498;2023-09-08T18:56:20;20.90;26.90
8402;DHT22;4238;48.404;9.498;2023-09-08T18:58:47;20.80;32.90
8402;DHT22;4238;48.404;9.498;2023-09-08T19:01:14;20.70;41.80
8402;DHT22;4238;48.404;9.498;2023-09-08T19:03:41;20.50;45.50
8402;DHT22;4238;48.404;9.498;2023-09-08T19:06:09;20.40;50.90
8402;DHT22;4238;48.404;9.498;2023-09-08T19:08:36;20.30;54.60
8402;DHT22;4238;48.404;9.498;2023-09-08T19:11:03;20.10;61.90
8402;DHT22;4238;48.404;9.498;2023-09-08T19:13:30;20.00;66.40
8402;DHT22;4238;48.404;9.498;2023-09-08T19:15:57;19.80;67.10
8402;DHT22;4238;48.404;9.498;2023-09-08T19:18:24;19.70;69.70
8402;DHT22;4238;48.404;9.498;2023-09-08T19:20:50;19.60;68.60
8402;DHT22;4238;48.404;9.498;2023-09-08T19:23:19;19.50;73.40
8402;DHT22;4238;48.404;9.498;2023-09-08T19:25:46;19.50;80.30
8402;DHT22;4238;48.404;9.498;2023-09-08T19:28:13;19.40;80.10
8402;DHT22;4238;48.404;9.498;2023-09-08T19:30:45;19.30;81.80
8402;DHT22;4238;48.404;9.498;2023-09-08T19:33:13;19.20;76.70
8402;DHT22;4238;48.404;9.498;2023-09-08T19:35:40;19.20;75.50
8402;DHT22;4238;48.404;9.498;2023-09-08T19:38:07;19.20;67.70
8402;DHT22;4238;48.404;9.498;2023-09-08T19:40:35;19.20;67.20
8402;DHT22;4238;48.404;9.498;2023-09-08T19:43:02;19.10;67.00
8402;DHT22;4238;48.404;9.498;2023-09-08T19:45:29;19.00;69.20
8402;DHT22;4238;48.404;9.498;2023-09-08T19:47:57;18.90;70.60
8402;DHT22;4238;48.404;9.498;2023-09-08T19:50:24;18.80;75.60
8402;DHT22;4238;48.404;9.498;2023-09-08T19:52:50;18.70;81.10
8402;DHT22;4238;48.404;9.498;2023-09-08T19:55:17;18.70;88.00
8402;DHT22;4238;48.404;9.498;2023-09-08T19:57:45;18.60;91.20
8402;DHT22;4238;48.404;9.498;2023-09-08T20:00:13;18.50;93.30
8402;DHT22;4238;48.404;9.498;2023-09-08T20:02:42;18.50;94.50
8402;DHT22;4238;48.404;9.498;2023-09-08T20:05:09;18.40;94.70
8402;DHT22;4238;48.404;9.498;2023-09-08T20:07:36;18.40;93.90
8402;DHT22;4238;48.404;9.498;2023-09-08T20:10:05;18.40;93.10